sensor_id;sensor_type;location;lat;lon;timestamp;pressure;altitude;pressure_sealevel;temperature;humidity
46095;BME280;31832;50.746;-2.716;2024-03-25T00:00:15;72511.69;;;20.23;92.65
46095;BME280;31832;50.746;-2.716;2024-03-25T00:02:39;72511.69;;;20.23;92.65
46095;BME280;31832;50.746;-2.716;2024-03-25T00:05:04;72511.69;;;20.71;92.65
46095;BME280;31832;50.746;-2.716;2024-03-25T00:07:29;72511.69;;;20.23;92.65
46095;BME280;31832;50.746;-2.716;2024-03-25T00:09:54;72511.69;;;19.99;92.65
46095;BME280;31832;50.746;-2.716;2024-03-25T00:12:20;72511.69;;;19.99;92.65
46095;BME280;31832;50.746;-2.716;2024-03-25T00:14:45;72511.69;;;19.99;92.65
46095;BME280;31832;50.746;-2.716;2024-03-25T00:17:10;72511.69;;;19.99;92.65
46095;BME280;31832;50.746;-2.716;2024-03-25T00:19:35;72511.69;;;19.75;92.65
46095;BME280;31832;50.746;-2.716;2024-03-25T00:22:01;72511.69;;;20.23;92.65
46095;BME280;31832;50.746;-2.716;2024-03-25T00:24:26;72511.69;;;19.99;92.65
46095;BME280;31832;50.746;-2.716;2024-03-25T00:26:51;72511.69;;;19.99;92.65
46095;BME280;31832;50.746;-2.716;2024-03-25T00:29:16;72511.69;;;19.99;92.65
46095;BME280;31832;50.746;-2.716;2024-03-25T00:31:41;72511.69;;;20.23;92.65
46095;BME280;31832;50.746;-2.716;2024-03-25T00:34:07;72511.69;;;19.99;92.65
46095;BME280;31832;50.746;-2.716;2024-03-25T00:36:32;72511.69;;;20.23;92.65
46095;BME280;31832;50.746;-2.716;2024-03-25T00:38:57;72511.69;;;20.23;92.65
46095;BME280;31832;50.746;-2.716;2024-03-25T00:41:22;72511.69;;;19.99;92.65
46095;BME280;31832;50.746;-2.716;2024-03-25T00:43:48;72511.69;;;19.99;92.65
46095;BME280;31832;50.746;-2.716;2024-03-25T00:46:13;72511.69;;;20.23;92.65
46095;BME280;31832;50.746;-2.716;2024-03-25T00:48:38;72511.69;;;19.99;92.65
46095;BME280;31832;50.746;-2.716;2024-03-25T00:51:03;72511.69;;;19.99;92.65
46095;BME280;31832;50.746;-2.716;2024-03-25T00:53:28;72511.69;;;19.75;92.65
46095;BME280;31832;50.746;-2.716;2024-03-25T00:55:53;72511.69;;;19.99;92.65
46095;BME280;31832;50.746;-2.716;2024-03-25T00:58:19;72511.69;;;20.23;92.65
46095;BME280;31832;50.746;-2.716;2024-03-25T01:00:44;72511.69;;;19.99;92.65
46095;BME280;31832;50.746;-2.716;2024-03-25T01:03:09;72511.69;;;19.99;92.65
46095;BME280;31832;50.746;-2.716;2024-03-25T01:05:35;72511.69;;;20.23;92.65
46095;BME280;31832;50.746;-2.716;2024-03-25T01:08:00;72511.69;;;19.75;92.65
46095;BME280;31832;50.746;-2.716;2024-03-25T01:10:25;72511.69;;;19.99;92.65
46095;BME280;31832;50.746;-2.716;2024-03-25T01:12:50;72511.69;;;19.99;92.65
46095;BME280;31832;50.746;-2.716;2024-03-25T01:15:16;72511.69;;;19.75;92.65
46095;BME280;31832;50.746;-2.716;2024-03-25T01:17:40;72511.69;;;20.71;92.65
46095;BME280;31832;50.746;-2.716;2024-03-25T01:20:06;72511.69;;;20.23;92.65
46095;BME280;31832;50.746;-2.716;2024-03-25T01:22:31;72511.69;;;20.23;92.65
46095;BME280;31832;50.746;-2.716;2024-03-25T01:24:57;72511.69;;;20.23;92.65
46095;BME280;31832;50.746;-2.716;2024-03-25T01:27:22;72511.69;;;20.47;92.65
46095;BME280;31832;50.746;-2.716;2024-03-25T01:29:48;72511.69;;;20.23;92.65
46095;BME280;31832;50.746;-2.716;2024-03-25T01:32:12;72511.69;;;20.71;92.65
46095;BME280;31832;50.746;-2.716;2024-03-25T01:34:38;72511.69;;;20.71;92.65
46095;BME280;31832;50.746;-2.716;2024-03-25T01:37:03;72511.69;;;20.23;92.65
46095;BME280;31832;50.746;-2.716;2024-03-25T01:39:28;72511.69;;;20.23;92.65
46095;BME280;31832;50.746;-2.716;2024-03-25T01:41:53;72511.69;;;20.23;92.65
46095;BME280;31832;50.746;-2.716;2024-03-25T01:44:19;72511.69;;;19.75;92.65
46095;BME280;31832;50.746;-2.716;2024-03-25T01:46:44;72511.69;;;20.23;92.65
46095;BME280;31832;50.746;-2.716;2024-03-25T01:49:09;72511.69;;;20.47;92.65
46095;BME280;31832;50.746;-2.716;2024-03-25T01:51:35;72511.69;;;20.23;92.65
46095;BME280;31832;50.746;-2.716;2024-03-25T01:54:00;72511.69;;;20.71;92.65
46095;BME280;31832;50.746;-2.716;2024-03-25T01:56:25;72511.69;;;20.23;92.65
46095;BME280;31832;50.746;-2.716;2024-03-25T01:58:50;72511.69;;;20.23;92.65
46095;BME280;31832;50.746;-2.716;2024-03-25T02:01:16;72511.69;;;20.23;92.65
46095;BME280;31832;50.746;-2.716;2024-03-25T02:03:41;72511.69;;;20.23;92.65
46095;BME280;31832;50.746;-2.716;2024-03-25T02:06:09;72511.69;;;19.99;92.65
46095;BME280;31832;50.746;-2.716;2024-03-25T02:08:31;72511.69;;;19.75;92.65
46095;BME280;31832;50.746;-2.716;2024-03-25T02:10:57;72511.69;;;20.23;92.65
46095;BME280;31832;50.746;-2.716;2024-03-25T02:13:21;72511.69;;;20.47;92.65
46095;BME280;31832;50.746;-2.716;2024-03-25T02:15:47;72511.69;;;20.23;92.65
46095;BME280;31832;50.746;-2.716;2024-03-25T02:18:12;72511.69;;;20.47;92.65
46095;BME280;31832;50.746;-2.716;2024-03-25T02:20:37;72511.69;;;19.99;92.65
46095;BME280;31832;50.746;-2.716;2024-03-25T02:23:03;72511.69;;;19.99;92.65
46095;BME280;31832;50.746;-2.716;2024-03-25T02:25:32;72511.69;;;20.23;92.65
46095;BME280;31832;50.746;-2.716;2024-03-25T02:27:53;72511.69;;;20.23;92.65
46095;BME280;31832;50.746;-2.716;2024-03-25T02:30:19;72511.69;;;19.99;92.65
46095;BME280;31832;50.746;-2.716;2024-03-25T02:32:44;72511.69;;;19.99;92.65
46095;BME280;31832;50.746;-2.716;2024-03-25T02:35:14;72511.69;;;20.23;92.65
46095;BME280;31832;50.746;-2.716;2024-03-25T02:37:35;72511.69;;;20.23;92.65
46095;BME280;31832;50.746;-2.716;2024-03-25T02:40:01;72511.69;;;20.71;92.65
46095;BME280;31832;50.746;-2.716;2024-03-25T02:42:26;72511.69;;;20.23;92.65
46095;BME280;31832;50.746;-2.716;2024-03-25T02:44:51;72511.69;;;20.23;92.65
46095;BME280;31832;50.746;-2.716;2024-03-25T02:47:16;72511.69;;;20.23;92.65
46095;BME280;31832;50.746;-2.716;2024-03-25T02:49:41;72511.69;;;20.23;92.65
46095;BME280;31832;50.746;-2.716;2024-03-25T02:52:06;72511.69;;;20.23;92.65
46095;BME280;31832;50.746;-2.716;2024-03-25T02:54:32;72511.69;;;20.23;92.65
46095;BME280;31832;50.746;-2.716;2024-03-25T02:56:57;72511.69;;;19.99;92.65
46095;BME280;31832;50.746;-2.716;2024-03-25T02:59:22;72511.69;;;19.75;92.65
46095;BME280;31832;50.746;-2.716;2024-03-25T03:01:48;72511.69;;;19.99;92.65
46095;BME280;31832;50.746;-2.716;2024-03-25T03:04:12;72511.69;;;20.71;92.65
46095;BME280;31832;50.746;-2.716;2024-03-25T03:06:38;72511.69;;;20.23;92.65
46095;BME280;31832;50.746;-2.716;2024-03-25T03:09:03;72511.69;;;20.23;92.65
46095;BME280;31832;50.746;-2.716;2024-03-25T03:11:28;72511.69;;;20.23;92.65
46095;BME280;31832;50.746;-2.716;2024-03-25T03:13:53;72511.69;;;20.23;92.65
46095;BME280;31832;50.746;-2.716;2024-03-25T03:16:19;72511.69;;;20.71;92.65
46095;BME280;31832;50.746;-2.716;2024-03-25T03:18:45;72511.69;;;20.71;92.65
46095;BME280;31832;50.746;-2.716;2024-03-25T03:21:11;72511.69;;;20.23;92.65
46095;BME280;31832;50.746;-2.716;2024-03-25T03:23:36;72511.69;;;20.71;92.65
46095;BME280;31832;50.746;-2.716;2024-03-25T03:26:01;72511.69;;;20.71;92.65
46095;BME280;31832;50.746;-2.716;2024-03-25T03:28:26;72511.69;;;20.94;92.65
46095;BME280;31832;50.746;-2.716;2024-03-25T03:30:51;72511.69;;;20.94;92.65
46095;BME280;31832;50.746;-2.716;2024-03-25T03:33:16;72511.69;;;20.47;92.65
46095;BME280;31832;50.746;-2.716;2024-03-25T03:35:42;72511.69;;;20.94;92.65
46095;BME280;31832;50.746;-2.716;2024-03-25T03:38:07;72511.69;;;20.94;92.65
46095;BME280;31832;50.746;-2.716;2024-03-25T03:40:32;72511.69;;;20.71;92.65
46095;BME280;31832;50.746;-2.716;2024-03-25T03:42:57;72511.69;;;20.71;92.65
46095;BME280;31832;50.746;-2.716;2024-03-25T03:45:25;72511.69;;;20.71;92.65
46095;BME280;31832;50.746;-2.716;2024-03-25T03:47:48;72511.69;;;20.23;92.65
46095;BME280;31832;50.746;-2.716;2024-03-25T03:50:13;72511.69;;;20.47;92.65
46095;BME280;31832;50.746;-2.716;2024-03-25T03:52:38;72511.69;;;20.23;92.65
46095;BME280;31832;50.746;-2.716;2024-03-25T03:55:04;72511.69;;;20.23;92.65
46095;BME280;31832;50.746;-2.716;2024-03-25T03:57:29;72511.69;;;20.23;92.65
46095;BME280;31832;50.746;-2.716;2024-03-25T03:59:54;72511.69;;;20.23;92.65
46095;BME280;31832;50.746;-2.716;2024-03-25T04:02:20;72511.69;;;20.71;92.65
46095;BME280;31832;50.746;-2.716;2024-03-25T04:04:45;72511.69;;;20.47;92.65
46095;BME280;31832;50.746;-2.716;2024-03-25T04:07:10;72511.69;;;20.71;92.65
46095;BME280;31832;50.746;-2.716;2024-03-25T04:09:35;72511.69;;;20.23;92.65
46095;BME280;31832;50.746;-2.716;2024-03-25T04:12:01;72511.69;;;20.23;92.65
46095;BME280;31832;50.746;-2.716;2024-03-25T04:14:26;72511.69;;;20.23;92.65
46095;BME280;31832;50.746;-2.716;2024-03-25T04:16:51;72511.69;;;19.99;92.65
46095;BME280;31832;50.746;-2.716;2024-03-25T04:19:16;72511.69;;;20.23;92.65
46095;BME280;31832;50.746;-2.716;2024-03-25T04:21:42;72511.69;;;20.23;92.65
46095;BME280;31832;50.746;-2.716;2024-03-25T04:24:07;72511.69;;;20.47;92.65
46095;BME280;31832;50.746;-2.716;2024-03-25T04:26:32;72511.69;;;20.71;92.65
46095;BME280;31832;50.746;-2.716;2024-03-25T04:28:57;72511.69;;;20.71;92.65
46095;BME280;31832;50.746;-2.716;2024-03-25T04:31:23;72511.69;;;20.47;92.65
46095;BME280;31832;50.746;-2.716;2024-03-25T04:33:48;72511.69;;;20.23;92.65
46095;BME280;31832;50.746;-2.716;2024-03-25T04:36:13;72511.69;;;19.99;92.65
46095;BME280;31832;50.746;-2.716;2024-03-25T04:38:38;72511.69;;;20.47;92.65
46095;BME280;31832;50.746;-2.716;2024-03-25T04:41:04;72511.69;;;20.47;92.65
46095;BME280;31832;50.746;-2.716;2024-03-25T04:43:28;72511.69;;;20.23;92.65
46095;BME280;31832;50.746;-2.716;2024-03-25T04:45:53;72511.69;;;19.99;92.65
46095;BME280;31832;50.746;-2.716;2024-03-25T04:48:20;72511.69;;;20.23;92.65
46095;BME280;31832;50.746;-2.716;2024-03-25T04:50:44;72511.69;;;20.23;92.65
46095;BME280;31832;50.746;-2.716;2024-03-25T04:53:10;72511.69;;;20.47;92.65
46095;BME280;31832;50.746;-2.716;2024-03-25T04:55:35;72511.69;;;20.23;92.65
46095;BME280;31832;50.746;-2.716;2024-03-25T04:58:00;72511.69;;;20.47;92.65
46095;BME280;31832;50.746;-2.716;2024-03-25T05:00:26;72511.69;;;19.99;92.65
46095;BME280;31832;50.746;-2.716;2024-03-25T05:02:52;72511.69;;;20.23;92.65
46095;BME280;31832;50.746;-2.716;2024-03-25T05:05:17;72511.69;;;20.47;92.65
46095;BME280;31832;50.746;-2.716;2024-03-25T05:07:42;72511.69;;;20.71;92.65
46095;BME280;31832;50.746;-2.716;2024-03-25T05:10:08;72511.69;;;20.71;92.65
46095;BME280;31832;50.746;-2.716;2024-03-25T05:12:33;72511.69;;;20.71;92.65
46095;BME280;31832;50.746;-2.716;2024-03-25T05:14:59;72511.69;;;20.71;92.65
46095;BME280;31832;50.746;-2.716;2024-03-25T05:17:24;72511.69;;;20.23;92.65
46095;BME280;31832;50.746;-2.716;2024-03-25T05:19:49;72511.69;;;20.71;92.65
46095;BME280;31832;50.746;-2.716;2024-03-25T05:22:15;72511.69;;;20.71;92.65
46095;BME280;31832;50.746;-2.716;2024-03-25T05:24:40;72511.69;;;20.71;92.65
46095;BME280;31832;50.746;-2.716;2024-03-25T05:27:05;72511.69;;;20.71;92.65
46095;BME280;31832;50.746;-2.716;2024-03-25T05:29:31;72511.69;;;20.71;92.65
46095;BME280;31832;50.746;-2.716;2024-03-25T05:31:57;72511.69;;;20.47;92.65
46095;BME280;31832;50.746;-2.716;2024-03-25T05:34:21;72511.69;;;20.23;92.65
46095;BME280;31832;50.746;-2.716;2024-03-25T05:36:47;72511.69;;;20.23;92.65
46095;BME280;31832;50.746;-2.716;2024-03-25T05:39:12;72511.69;;;20.23;92.65
46095;BME280;31832;50.746;-2.716;2024-03-25T05:41:38;72511.69;;;20.23;92.65
46095;BME280;31832;50.746;-2.716;2024-03-25T05:44:03;72511.69;;;20.71;92.65
46095;BME280;31832;50.746;-2.716;2024-03-25T05:46:29;72511.69;;;20.71;92.65
46095;BME280;31832;50.746;-2.716;2024-03-25T05:48:54;72511.69;;;20.23;92.65
46095;BME280;31832;50.746;-2.716;2024-03-25T05:51:19;72511.69;;;20.23;92.65
46095;BME280;31832;50.746;-2.716;2024-03-25T05:53:45;72511.69;;;20.23;92.65
46095;BME280;31832;50.746;-2.716;2024-03-25T05:56:10;72511.69;;;19.75;92.65
46095;BME280;31832;50.746;-2.716;2024-03-25T05:58:35;72511.69;;;19.99;92.65
46095;BME280;31832;50.746;-2.716;2024-03-25T06:01:01;72511.69;;;20.23;92.65
46095;BME280;31832;50.746;-2.716;2024-03-25T06:03:26;72511.69;;;20.71;92.65
46095;BME280;31832;50.746;-2.716;2024-03-25T06:05:51;72511.69;;;20.23;92.65
46095;BME280;31832;50.746;-2.716;2024-03-25T06:08:17;72511.69;;;20.23;92.65
46095;BME280;31832;50.746;-2.716;2024-03-25T06:10:42;72511.69;;;20.23;92.65
46095;BME280;31832;50.746;-2.716;2024-03-25T06:13:07;72511.69;;;20.23;92.65
46095;BME280;31832;50.746;-2.716;2024-03-25T06:15:33;72511.69;;;19.99;92.65
46095;BME280;31832;50.746;-2.716;2024-03-25T06:17:58;72511.69;;;20.71;92.65
46095;BME280;31832;50.746;-2.716;2024-03-25T06:20:24;72511.69;;;20.71;92.65
46095;BME280;31832;50.746;-2.716;2024-03-25T06:22:49;72511.69;;;21.18;92.65
46095;BME280;31832;50.746;-2.716;2024-03-25T06:25:15;72511.69;;;21.42;92.65
46095;BME280;31832;50.746;-2.716;2024-03-25T06:27:40;72511.69;;;21.18;92.65
46095;BME280;31832;50.746;-2.716;2024-03-25T06:30:06;72511.69;;;20.71;92.65
46095;BME280;31832;50.746;-2.716;2024-03-25T06:32:30;72511.69;;;20.23;92.65
46095;BME280;31832;50.746;-2.716;2024-03-25T06:34:56;72511.69;;;20.47;92.65
46095;BME280;31832;50.746;-2.716;2024-03-25T06:37:21;72511.69;;;20.94;92.65
46095;BME280;31832;50.746;-2.716;2024-03-25T06:39:47;72511.69;;;20.71;92.65
46095;BME280;31832;50.746;-2.716;2024-03-25T06:42:12;72511.69;;;20.71;92.65
46095;BME280;31832;50.746;-2.716;2024-03-25T06:44:38;72511.69;;;20.94;92.65
46095;BME280;31832;50.746;-2.716;2024-03-25T06:47:03;72511.69;;;20.71;92.65
46095;BME280;31832;50.746;-2.716;2024-03-25T06:49:29;72511.69;;;21.18;92.65
46095;BME280;31832;50.746;-2.716;2024-03-25T06:51:54;72511.69;;;21.18;92.65
46095;BME280;31832;50.746;-2.716;2024-03-25T06:54:19;72511.69;;;21.18;92.65
46095;BME280;31832;50.746;-2.716;2024-03-25T06:56:45;72511.69;;;21.18;92.65
46095;BME280;31832;50.746;-2.716;2024-03-25T06:59:10;72511.69;;;20.71;92.65
46095;BME280;31832;50.746;-2.716;2024-03-25T07:01:35;72511.69;;;20.94;92.65
46095;BME280;31832;50.746;-2.716;2024-03-25T07:04:00;72511.69;;;20.71;92.65
46095;BME280;31832;50.746;-2.716;2024-03-25T07:06:25;72511.69;;;20.94;92.65
46095;BME280;31832;50.746;-2.716;2024-03-25T07:08:51;72511.69;;;21.18;92.65
46095;BME280;31832;50.746;-2.716;2024-03-25T07:11:15;72511.69;;;21.18;92.65
46095;BME280;31832;50.746;-2.716;2024-03-25T07:13:41;72511.69;;;21.18;92.65
46095;BME280;31832;50.746;-2.716;2024-03-25T07:16:07;72511.69;;;20.71;92.65
46095;BME280;31832;50.746;-2.716;2024-03-25T07:18:32;72511.69;;;20.71;92.65
46095;BME280;31832;50.746;-2.716;2024-03-25T07:20:57;72511.69;;;20.47;92.65
46095;BME280;31832;50.746;-2.716;2024-03-25T07:23:23;72511.69;;;21.18;92.65
46095;BME280;31832;50.746;-2.716;2024-03-25T07:25:48;72511.69;;;20.94;92.65
46095;BME280;31832;50.746;-2.716;2024-03-25T07:28:13;72511.69;;;21.18;92.65
46095;BME280;31832;50.746;-2.716;2024-03-25T07:30:39;72511.69;;;20.94;92.65
46095;BME280;31832;50.746;-2.716;2024-03-25T07:33:04;72511.69;;;20.71;92.65
46095;BME280;31832;50.746;-2.716;2024-03-25T07:35:29;72511.69;;;21.18;92.65
46095;BME280;31832;50.746;-2.716;2024-03-25T07:37:54;72511.69;;;20.94;92.65
46095;BME280;31832;50.746;-2.716;2024-03-25T07:40:20;72511.69;;;21.18;92.65
46095;BME280;31832;50.746;-2.716;2024-03-25T07:42:45;72511.69;;;20.94;92.65
46095;BME280;31832;50.746;-2.716;2024-03-25T07:45:10;72511.69;;;21.18;92.65
46095;BME280;31832;50.746;-2.716;2024-03-25T07:47:35;72511.69;;;20.71;92.65
46095;BME280;31832;50.746;-2.716;2024-03-25T07:50:01;72511.69;;;21.18;92.65
46095;BME280;31832;50.746;-2.716;2024-03-25T07:52:26;72511.69;;;21.18;92.65
46095;BME280;31832;50.746;-2.716;2024-03-25T07:54:51;72511.69;;;20.94;92.65
46095;BME280;31832;50.746;-2.716;2024-03-25T07:57:16;72511.69;;;21.18;92.65
46095;BME280;31832;50.746;-2.716;2024-03-25T07:59:41;72511.69;;;21.18;92.65
46095;BME280;31832;50.746;-2.716;2024-03-25T08:02:06;72511.69;;;21.66;92.65
46095;BME280;31832;50.746;-2.716;2024-03-25T08:04:32;72511.69;;;21.42;92.65
46095;BME280;31832;50.746;-2.716;2024-03-25T08:06:57;72511.69;;;21.66;92.65
46095;BME280;31832;50.746;-2.716;2024-03-25T08:09:22;72511.69;;;21.42;92.65
46095;BME280;31832;50.746;-2.716;2024-03-25T08:11:47;72511.69;;;21.18;92.65
46095;BME280;31832;50.746;-2.716;2024-03-25T08:14:13;72511.69;;;21.18;92.65
46095;BME280;31832;50.746;-2.716;2024-03-25T08:16:38;72511.69;;;21.42;92.65
46095;BME280;31832;50.746;-2.716;2024-03-25T08:19:03;72511.69;;;21.18;92.65
46095;BME280;31832;50.746;-2.716;2024-03-25T08:21:29;72511.69;;;21.18;92.65
46095;BME280;31832;50.746;-2.716;2024-03-25T08:23:54;72511.69;;;21.42;92.65
46095;BME280;31832;50.746;-2.716;2024-03-25T08:26:19;72511.69;;;21.18;92.65
46095;BME280;31832;50.746;-2.716;2024-03-25T08:28:44;72511.69;;;21.18;92.65
46095;BME280;31832;50.746;-2.716;2024-03-25T08:31:11;72511.69;;;21.18;92.65
46095;BME280;31832;50.746;-2.716;2024-03-25T08:33:35;72511.69;;;21.18;92.65
46095;BME280;31832;50.746;-2.716;2024-03-25T08:36:01;72511.69;;;21.18;92.65
46095;BME280;31832;50.746;-2.716;2024-03-25T08:38:27;72511.69;;;21.42;92.65
46095;BME280;31832;50.746;-2.716;2024-03-25T08:40:52;72511.69;;;21.18;92.65
46095;BME280;31832;50.746;-2.716;2024-03-25T08:43:17;72511.69;;;21.18;92.65
46095;BME280;31832;50.746;-2.716;2024-03-25T08:45:43;72511.69;;;21.42;92.65
46095;BME280;31832;50.746;-2.716;2024-03-25T08:48:08;72511.69;;;21.18;92.65
46095;BME280;31832;50.746;-2.716;2024-03-25T08:50:33;72511.69;;;21.18;92.65
46095;BME280;31832;50.746;-2.716;2024-03-25T08:52:59;72511.69;;;21.42;92.65
46095;BME280;31832;50.746;-2.716;2024-03-25T08:55:24;72511.69;;;21.18;92.65
46095;BME280;31832;50.746;-2.716;2024-03-25T08:57:50;72511.69;;;21.18;92.65
46095;BME280;31832;50.746;-2.716;2024-03-25T09:00:16;72511.69;;;21.18;92.65
46095;BME280;31832;50.746;-2.716;2024-03-25T09:02:40;72511.69;;;20.71;92.65
46095;BME280;31832;50.746;-2.716;2024-03-25T09:05:06;72511.69;;;21.18;92.65
46095;BME280;31832;50.746;-2.716;2024-03-25T09:07:31;72511.69;;;20.71;92.65
46095;BME280;31832;50.746;-2.716;2024-03-25T09:09:56;72511.69;;;20.71;92.65
46095;BME280;31832;50.746;-2.716;2024-03-25T09:12:22;72511.69;;;20.94;92.65
46095;BME280;31832;50.746;-2.716;2024-03-25T09:14:49;72511.69;;;20.71;92.65
46095;BME280;31832;50.746;-2.716;2024-03-25T09:17:14;72511.69;;;21.18;92.65
46095;BME280;31832;50.746;-2.716;2024-03-25T09:19:39;72511.69;;;20.94;92.65
46095;BME280;31832;50.746;-2.716;2024-03-25T09:22:05;72511.69;;;21.18;92.65
46095;BME280;31832;50.746;-2.716;2024-03-25T09:24:30;72511.69;;;20.71;92.65
46095;BME280;31832;50.746;-2.716;2024-03-25T09:26:56;72511.69;;;21.18;92.65
46095;BME280;31832;50.746;-2.716;2024-03-25T09:29:22;72511.69;;;20.71;92.65
46095;BME280;31832;50.746;-2.716;2024-03-25T09:31:47;72511.69;;;20.71;92.65
46095;BME280;31832;50.746;-2.716;2024-03-25T09:34:12;72511.69;;;21.18;92.65
46095;BME280;31832;50.746;-2.716;2024-03-25T09:36:38;72511.69;;;20.94;92.65
46095;BME280;31832;50.746;-2.716;2024-03-25T09:39:03;72511.69;;;20.94;92.65
46095;BME280;31832;50.746;-2.716;2024-03-25T09:41:30;72511.69;;;20.94;92.65
46095;BME280;31832;50.746;-2.716;2024-03-25T09:43:54;72511.69;;;20.71;92.65
46095;BME280;31832;50.746;-2.716;2024-03-25T09:46:21;72511.69;;;20.71;92.65
46095;BME280;31832;50.746;-2.716;2024-03-25T09:48:45;72511.69;;;20.71;92.65
46095;BME280;31832;50.746;-2.716;2024-03-25T09:51:11;72511.69;;;20.71;92.65
46095;BME280;31832;50.746;-2.716;2024-03-25T09:53:36;72511.69;;;20.71;92.65
46095;BME280;31832;50.746;-2.716;2024-03-25T09:56:01;72511.69;;;20.94;92.65
46095;BME280;31832;50.746;-2.716;2024-03-25T09:58:27;72511.69;;;20.94;92.65
46095;BME280;31832;50.746;-2.716;2024-03-25T10:00:52;72511.69;;;21.18;92.65
46095;BME280;31832;50.746;-2.716;2024-03-25T10:03:18;72511.69;;;20.94;92.65
46095;BME280;31832;50.746;-2.716;2024-03-25T10:05:44;72511.69;;;21.18;92.65
46095;BME280;31832;50.746;-2.716;2024-03-25T10:08:10;72511.69;;;21.18;92.65
46095;BME280;31832;50.746;-2.716;2024-03-25T10:10:35;72511.69;;;21.18;92.65
46095;BME280;31832;50.746;-2.716;2024-03-25T10:13:01;72511.69;;;20.94;92.65
46095;BME280;31832;50.746;-2.716;2024-03-25T10:15:27;72511.69;;;21.66;92.65
46095;BME280;31832;50.746;-2.716;2024-03-25T10:17:51;72511.69;;;20.94;92.65
46095;BME280;31832;50.746;-2.716;2024-03-25T10:20:17;72511.69;;;21.18;92.65
46095;BME280;31832;50.746;-2.716;2024-03-25T10:22:44;72511.69;;;21.18;92.65
46095;BME280;31832;50.746;-2.716;2024-03-25T10:25:18;72511.69;;;21.18;92.65
46095;BME280;31832;50.746;-2.716;2024-03-25T10:27:34;72511.69;;;21.18;92.65
46095;BME280;31832;50.746;-2.716;2024-03-25T10:29:59;72511.69;;;21.18;92.65
46095;BME280;31832;50.746;-2.716;2024-03-25T10:32:24;72511.69;;;21.18;92.65
46095;BME280;31832;50.746;-2.716;2024-03-25T10:34:50;72511.69;;;20.23;92.65
46095;BME280;31832;50.746;-2.716;2024-03-25T10:37:16;72511.69;;;20.47;92.65
46095;BME280;31832;50.746;-2.716;2024-03-25T10:39:47;72511.69;;;20.71;92.65
46095;BME280;31832;50.746;-2.716;2024-03-25T10:42:06;72511.69;;;20.71;92.65
46095;BME280;31832;50.746;-2.716;2024-03-25T10:44:31;72511.69;;;20.94;92.65
46095;BME280;31832;50.746;-2.716;2024-03-25T10:47:00;72511.69;;;21.18;92.65
46095;BME280;31832;50.746;-2.716;2024-03-25T10:49:31;72511.69;;;21.18;92.65
46095;BME280;31832;50.746;-2.716;2024-03-25T10:51:48;72511.69;;;20.47;92.65
46095;BME280;31832;50.746;-2.716;2024-03-25T10:54:12;72511.69;;;20.94;92.65
46095;BME280;31832;50.746;-2.716;2024-03-25T10:56:37;72511.69;;;21.18;92.65
46095;BME280;31832;50.746;-2.716;2024-03-25T10:59:02;72511.69;;;21.18;92.65
46095;BME280;31832;50.746;-2.716;2024-03-25T11:01:29;72511.69;;;20.71;92.65
46095;BME280;31832;50.746;-2.716;2024-03-25T11:03:53;72511.69;;;21.42;92.65
46095;BME280;31832;50.746;-2.716;2024-03-25T11:06:18;72511.69;;;21.18;92.65
46095;BME280;31832;50.746;-2.716;2024-03-25T11:08:43;72511.69;;;21.18;92.65
46095;BME280;31832;50.746;-2.716;2024-03-25T11:11:10;72511.69;;;20.94;92.65
46095;BME280;31832;50.746;-2.716;2024-03-25T11:13:34;72511.69;;;21.18;92.65
46095;BME280;31832;50.746;-2.716;2024-03-25T11:16:00;72511.69;;;20.71;92.65
46095;BME280;31832;50.746;-2.716;2024-03-25T11:18:26;72511.69;;;20.71;92.65
46095;BME280;31832;50.746;-2.716;2024-03-25T11:21:01;72511.69;;;20.71;92.65
46095;BME280;31832;50.746;-2.716;2024-03-25T11:23:17;72511.69;;;20.71;92.65
46095;BME280;31832;50.746;-2.716;2024-03-25T11:25:42;72511.69;;;21.18;92.65
46095;BME280;31832;50.746;-2.716;2024-03-25T11:28:07;72511.69;;;20.71;92.65
46095;BME280;31832;50.746;-2.716;2024-03-25T11:30:32;72511.69;;;20.47;92.65
46095;BME280;31832;50.746;-2.716;2024-03-25T11:33:02;72511.69;;;20.23;92.65
46095;BME280;31832;50.746;-2.716;2024-03-25T11:35:22;72511.69;;;19.75;92.65
46095;BME280;31832;50.746;-2.716;2024-03-25T11:37:48;72511.69;;;19.75;92.65
46095;BME280;31832;50.746;-2.716;2024-03-25T11:40:14;72511.69;;;19.99;92.65
46095;BME280;31832;50.746;-2.716;2024-03-25T11:42:39;72511.69;;;20.71;92.65
46095;BME280;31832;50.746;-2.716;2024-03-25T11:45:05;72511.69;;;21.18;92.65
46095;BME280;31832;50.746;-2.716;2024-03-25T11:47:31;72511.69;;;20.71;92.65
46095;BME280;31832;50.746;-2.716;2024-03-25T11:49:55;72511.69;;;21.18;92.65
46095;BME280;31832;50.746;-2.716;2024-03-25T11:52:21;72511.69;;;20.71;92.65
46095;BME280;31832;50.746;-2.716;2024-03-25T11:54:53;72511.69;;;20.71;92.65
46095;BME280;31832;50.746;-2.716;2024-03-25T11:57:12;72511.69;;;20.71;92.65
46095;BME280;31832;50.746;-2.716;2024-03-25T11:59:37;72511.69;;;20.71;92.65
46095;BME280;31832;50.746;-2.716;2024-03-25T12:02:06;72511.69;;;21.66;92.65
46095;BME280;31832;50.746;-2.716;2024-03-25T12:04:27;72511.69;;;21.18;92.65
46095;BME280;31832;50.746;-2.716;2024-03-25T12:06:54;72511.69;;;21.18;92.65
46095;BME280;31832;50.746;-2.716;2024-03-25T12:09:18;72511.69;;;20.71;92.65
46095;BME280;31832;50.746;-2.716;2024-03-25T12:11:43;72511.69;;;20.71;92.65
46095;BME280;31832;50.746;-2.716;2024-03-25T12:14:09;72511.69;;;20.47;92.65
46095;BME280;31832;50.746;-2.716;2024-03-25T12:16:35;72511.69;;;20.94;92.65
46095;BME280;31832;50.746;-2.716;2024-03-25T12:19:00;72511.69;;;21.18;92.65
46095;BME280;31832;50.746;-2.716;2024-03-25T12:21:25;72511.69;;;20.71;92.65
46095;BME280;31832;50.746;-2.716;2024-03-25T12:23:50;72511.69;;;20.94;92.65
46095;BME280;31832;50.746;-2.716;2024-03-25T12:26:15;72511.69;;;20.71;92.65
46095;BME280;31832;50.746;-2.716;2024-03-25T12:28:41;72511.69;;;20.23;92.65
46095;BME280;31832;50.746;-2.716;2024-03-25T12:31:11;72511.69;;;19.99;92.65
46095;BME280;31832;50.746;-2.716;2024-03-25T12:33:40;72511.69;;;20.23;92.65
46095;BME280;31832;50.746;-2.716;2024-03-25T12:35:57;72511.69;;;20.94;92.65
46095;BME280;31832;50.746;-2.716;2024-03-25T12:38:24;72511.69;;;20.71;92.65